Time;durP1;ratioP1;P1;durP2;ratioP2;P2;SDS_P1;SDS_P2;PMS_P1;PMS_P2;Temp;Humidity;BMP_temperature;BMP_pressure;BME280_temperature;BME280_humidity;BME280_pressure;Samples;Min_cycle;Max_cycle;Signal;HPM_P1;HPM_P2
2021/07/15 00:02:11;;;;;;;20.55;12.00;;;17.30;99.90;;;;;;5036768;28;20032;-59
2021/07/15 00:04:37;;;;;;;19.40;11.38;;;17.30;99.90;;;;;;5036964;28;20076;-58
2021/07/15 00:07:03;;;;;;;19.02;11.85;;;17.30;99.90;;;;;;5054448;28;20435;-57
2021/07/15 00:09:29;;;;;;;17.65;11.50;;;17.30;99.90;;;;;;5054675;28;20033;-57
2021/07/15 00:11:54;;;;;;;22.30;12.23;;;17.30;99.90;;;;;;5036549;28;20094;-59
2021/07/15 00:14:21;;;;;;;18.55;12.65;;;17.30;99.90;;;;;;5055382;28;20043;-58
2021/07/15 00:16:57;;;;;;;21.25;12.38;;;17.30;99.90;;;;;;5036404;28;20027;-60
2021/07/15 00:19:26;;;;;;;21.90;12.18;;;17.30;99.90;;;;;;5054774;28;20063;-62
2021/07/15 00:21:53;;;;;;;19.75;12.07;;;17.30;99.90;;;;;;5036573;28;20048;-59
2021/07/15 00:24:19;;;;;;;22.08;12.25;;;17.30;99.90;;;;;;5036548;28;20033;-61
2021/07/15 00:26:46;;;;;;;18.42;12.95;;;17.30;99.90;;;;;;5054051;28;20062;-60
2021/07/15 00:29:12;;;;;;;21.77;13.27;;;17.20;99.90;;;;;;5054131;28;20090;-58
2021/07/15 00:31:38;;;;;;;21.10;12.90;;;;;;;;;;5054195;28;20392;-61
2021/07/15 00:34:04;;;;;;;21.67;12.98;;;17.30;99.90;;;;;;5036703;28;20074;-59
2021/07/15 00:36:29;;;;;;;19.25;13.05;;;17.30;99.90;;;;;;5035993;28;20033;-61
2021/07/15 00:38:55;;;;;;;19.45;12.40;;;17.20;99.90;;;;;;5036164;28;20029;-60
2021/07/15 00:41:21;;;;;;;19.63;12.20;;;17.20;99.90;;;;;;5053183;28;20040;-61
2021/07/15 00:43:47;;;;;;;18.13;11.80;;;17.10;99.90;;;;;;5053782;28;20029;-60
2021/07/15 00:46:13;;;;;;;17.42;12.30;;;17.10;99.90;;;;;;5036046;28;20051;-58
2021/07/15 00:48:38;;;;;;;20.60;12.20;;;17.20;99.90;;;;;;5054035;28;20100;-59
2021/07/15 00:51:06;;;;;;;20.35;12.80;;;17.10;99.90;;;;;;5053989;28;20538;-60
2021/07/15 00:53:32;;;;;;;18.88;12.77;;;17.20;99.90;;;;;;5053904;28;20032;-59
2021/07/15 00:55:58;;;;;;;19.30;12.57;;;17.20;99.90;;;;;;5035670;28;20164;-61
2021/07/15 00:58:24;;;;;;;17.83;11.93;;;17.20;99.90;;;;;;5053762;28;20049;-59
2021/07/15 01:00:50;;;;;;;19.02;12.10;;;17.00;99.90;;;;;;5036237;28;20112;-58
2021/07/15 01:03:18;;;;;;;20.80;11.93;;;17.00;99.90;;;;;;5053719;28;20033;-60
2021/07/15 01:05:47;;;;;;;18.73;12.57;;;17.00;99.90;;;;;;5053495;28;20591;-57
2021/07/15 01:08:13;;;;;;;21.23;12.40;;;17.00;99.90;;;;;;5035719;28;20029;-59
2021/07/15 01:10:46;;;;;;;22.08;11.95;;;17.00;99.90;;;;;;5053517;28;20029;-60
2021/07/15 01:13:44;;;;;;;20.25;13.27;;;17.10;99.90;;;;;;5053312;28;20040;-58
2021/07/15 01:16:15;;;;;;;18.20;11.85;;;17.10;99.90;;;;;;5035346;28;20373;-60
2021/07/15 01:18:54;;;;;;;22.50;12.63;;;17.00;99.90;;;;;;5035532;28;20041;-59
2021/07/15 01:21:23;;;;;;;21.48;12.88;;;17.00;99.90;;;;;;5053278;28;20079;-58
2021/07/15 01:24:07;;;;;;;;;;;17.00;99.90;;;;;;5035736;28;20028;-58
2021/07/15 01:26:55;;;;;;;22.65;14.73;;;17.10;99.90;;;;;;5035201;28;20438;-59
2021/07/15 01:29:58;;;;;;;21.52;13.70;;;17.10;99.90;;;;;;5053319;28;20024;-58
2021/07/15 01:32:32;;;;;;;21.58;13.75;;;17.10;99.90;;;;;;5035561;28;20078;-58
2021/07/15 01:35:03;;;;;;;22.38;14.30;;;17.00;99.90;;;;;;5035480;28;20032;-61
2021/07/15 01:37:30;;;;;;;22.67;13.23;;;17.10;99.90;;;;;;5053069;28;20017;-60
2021/07/15 01:39:57;;;;;;;19.13;12.65;;;17.10;99.90;;;;;;5035373;28;20170;-60
2021/07/15 01:42:25;;;;;;;21.45;13.05;;;17.00;99.90;;;;;;5035051;28;20028;-59
2021/07/15 01:44:51;;;;;;;21.33;13.45;;;17.00;99.90;;;;;;5035240;28;20033;-60
2021/07/15 01:47:17;;;;;;;21.00;12.85;;;17.10;99.90;;;;;;5034797;28;20388;-60
2021/07/15 01:49:42;;;;;;;20.90;13.65;;;17.00;99.90;;;;;;5052970;28;20377;-58
2021/07/15 01:52:09;;;;;;;23.02;13.25;;;16.90;99.90;;;;;;5051862;28;20052;-60
2021/07/15 01:54:35;;;;;;;20.15;13.20;;;17.00;99.90;;;;;;5052674;28;20072;-60
2021/07/15 01:57:04;;;;;;;20.50;13.35;;;17.10;99.90;;;;;;5034628;28;20029;-60
2021/07/15 01:59:32;;;;;;;21.88;13.13;;;17.10;99.90;;;;;;5052660;28;20035;-60
2021/07/15 02:02:00;;;;;;;23.70;13.02;;;17.10;99.90;;;;;;5052584;28;20480;-59
2021/07/15 02:04:29;;;;;;;27.48;12.85;;;17.00;99.90;;;;;;5034718;28;20034;-60
2021/07/15 02:06:56;;;;;;;22.02;12.32;;;16.90;99.90;;;;;;5052328;28;20107;-61
2021/07/15 02:09:24;;;;;;;21.38;11.98;;;17.00;99.90;;;;;;5052485;28;20035;-60
2021/07/15 02:14:19;;;;;;;21.77;12.23;;;17.00;99.90;;;;;;5112217;22;20043;-63
2021/07/15 02:16:48;;;;;;;;;;;17.00;99.90;;;;;;5094563;28;20438;-64
2021/07/15 02:19:15;;;;;;;22.10;11.77;;;17.00;99.90;;;;;;5094985;28;19904;-65
2021/07/15 02:21:41;;;;;;;22.30;12.35;;;16.90;99.90;;;;;;5095644;28;20432;-63
2021/07/15 02:24:10;;;;;;;19.65;11.57;;;16.90;99.90;;;;;;5095619;28;20028;-63
2021/07/15 02:26:38;;;;;;;20.02;11.80;;;17.00;99.90;;;;;;5094726;28;20115;-64
2021/07/15 02:29:04;;;;;;;19.30;11.90;;;17.00;99.90;;;;;;5095724;28;20052;-64
2021/07/15 02:31:36;;;;;;;18.75;10.93;;;17.00;99.90;;;;;;5095523;28;20074;-64
2021/07/15 02:34:08;;;;;;;22.40;11.55;;;16.90;99.90;;;;;;5094758;28;20028;-63
2021/07/15 02:36:35;;;;;;;22.30;11.63;;;17.00;99.90;;;;;;5095307;28;20085;-64
2021/07/15 02:39:03;;;;;;;19.65;11.55;;;17.00;99.90;;;;;;5095519;28;20043;-64
2021/07/15 02:41:29;;;;;;;19.13;11.27;;;17.00;99.90;;;;;;5095567;28;20069;-64
2021/07/15 02:43:55;;;;;;;19.27;11.35;;;17.00;99.90;;;;;;5095920;28;20024;-64
2021/07/15 02:46:20;;;;;;;22.25;10.73;;;17.00;99.90;;;;;;5094741;28;20072;-63
2021/07/15 02:48:46;;;;;;;19.88;10.82;;;16.90;99.90;;;;;;5094668;28;20028;-63
2021/07/15 02:51:12;;;;;;;20.20;11.27;;;16.80;99.90;;;;;;5095345;28;20403;-63
2021/07/15 02:53:39;;;;;;;21.48;11.20;;;16.90;99.90;;;;;;5095375;28;20497;-64
2021/07/15 02:56:11;;;;;;;20.73;11.02;;;16.90;99.90;;;;;;5094380;28;20042;-64
2021/07/15 02:58:44;;;;;;;20.70;11.77;;;16.90;99.90;;;;;;5094974;28;20095;-64
2021/07/15 03:01:15;;;;;;;20.48;11.38;;;17.00;99.90;;;;;;5094865;28;20020;-64
2021/07/15 03:03:56;;;;;;;19.80;11.50;;;16.90;99.90;;;;;;5096624;28;20042;-64
2021/07/15 03:06:33;;;;;;;22.88;11.55;;;16.90;99.90;;;;;;5099548;28;20036;-64
2021/07/15 03:09:03;;;;;;;22.48;11.05;;;16.90;99.90;;;;;;5099227;28;20035;-64
2021/07/15 03:11:45;;;;;;;19.48;11.73;;;16.80;99.90;;;;;;5099060;28;20083;-63
2021/07/15 03:14:12;;;;;;;24.48;12.57;;;16.80;99.90;;;;;;5097898;28;20035;-63
2021/07/15 03:16:39;;;;;;;21.45;10.98;;;16.90;99.90;;;;;;5097034;28;20028;-63
2021/07/15 03:19:06;;;;;;;23.35;11.88;;;16.90;99.90;;;;;;5098317;28;20712;-63
2021/07/15 03:21:37;;;;;;;19.45;11.23;;;16.90;99.90;;;;;;5097558;28;20017;-63
2021/07/15 03:24:04;;;;;;;19.23;11.27;;;17.00;99.90;;;;;;5097043;28;20056;-64
2021/07/15 03:26:31;;;;;;;23.30;11.25;;;16.90;99.90;;;;;;5098694;28;20384;-63
2021/07/15 03:28:58;;;;;;;24.02;12.30;;;17.00;99.90;;;;;;5098542;28;20038;-64
2021/07/15 03:31:25;;;;;;;20.55;10.98;;;17.00;99.90;;;;;;5098263;28;20036;-64
2021/07/15 03:33:52;;;;;;;20.05;10.77;;;16.90;99.90;;;;;;5097288;28;20036;-63
2021/07/15 03:36:19;;;;;;;18.00;10.45;;;17.00;99.90;;;;;;5095484;28;20173;-64
2021/07/15 03:38:46;;;;;;;18.73;10.48;;;16.90;99.90;;;;;;5097591;28;20483;-63
2021/07/15 03:41:13;;;;;;;21.38;11.00;;;16.90;99.90;;;;;;5096346;28;20111;-62
2021/07/15 03:43:40;;;;;;;18.77;11.20;;;16.90;99.90;;;;;;5095437;28;20406;-64
2021/07/15 03:46:07;;;;;;;22.38;11.05;;;16.80;99.90;;;;;;5095819;28;20032;-63
2021/07/15 03:48:33;;;;;;;18.73;10.57;;;16.80;99.90;;;;;;5095612;28;20028;-62
2021/07/15 03:51:09;;;;;;;20.02;10.23;;;16.80;99.90;;;;;;5095348;28;20501;-64
2021/07/15 03:53:37;;;;;;;20.67;10.65;;;16.70;99.90;;;;;;5096501;28;20054;-63
2021/07/15 03:56:03;;;;;;;19.17;10.60;;;16.70;99.90;;;;;;5096728;28;20027;-63
2021/07/15 03:58:32;;;;;;;19.80;10.93;;;16.60;99.90;;;;;;5097008;28;20024;-63
2021/07/15 04:01:00;;;;;;;20.33;10.45;;;16.50;99.90;;;;;;5095504;28;20020;-63
2021/07/15 04:03:29;;;;;;;20.13;10.23;;;16.40;99.90;;;;;;5097536;28;20098;-63
2021/07/15 04:05:55;;;;;;;23.73;10.63;;;16.40;99.90;;;;;;5096543;28;20038;-63
2021/07/15 04:08:24;;;;;;;20.45;10.88;;;16.40;99.90;;;;;;5097091;28;20046;-64
2021/07/15 04:10:51;;;;;;;19.60;11.50;;;16.40;99.90;;;;;;5096799;28;20035;-63
2021/07/15 04:13:18;;;;;;;21.13;12.23;;;16.40;99.90;;;;;;5096736;28;20111;-64
2021/07/15 04:16:15;;;;;;;21.35;12.23;;;16.40;99.90;;;;;;5095671;28;20061;-63
2021/07/15 04:18:44;;;;;;;21.15;12.75;;;16.40;99.90;;;;;;5097548;28;20028;-63
2021/07/15 04:21:11;;;;;;;;;;;16.50;99.90;;;;;;5097906;28;20629;-63
2021/07/15 04:23:38;;;;;;;23.05;12.57;;;16.40;99.90;;;;;;5096468;28;19904;-64
2021/07/15 04:26:06;;;;;;;27.63;13.05;;;16.40;99.90;;;;;;5096728;28;20124;-62
2021/07/15 04:28:32;;;;;;;20.55;13.13;;;16.40;99.90;;;;;;5096392;28;20372;-64
2021/07/15 04:31:06;;;;;;;23.30;14.07;;;16.50;99.90;;;;;;5096070;28;20034;-63
2021/07/15 04:33:33;;;;;;;28.65;13.23;;;16.50;99.90;;;;;;5095197;28;20034;-63
2021/07/15 04:35:59;;;;;;;22.83;14.20;;;16.60;99.90;;;;;;5095340;28;20060;-63
2021/07/15 04:38:25;;;;;;;22.08;12.98;;;16.50;99.90;;;;;;5095001;28;20077;-61
2021/07/15 04:40:51;;;;;;;24.33;13.68;;;16.60;99.90;;;;;;5095739;28;20429;-63
2021/07/15 04:43:18;;;;;;;22.52;12.18;;;16.70;99.90;;;;;;5095940;28;20075;-63
2021/07/15 04:45:44;;;;;;;24.35;12.63;;;16.80;99.90;;;;;;5094489;28;20028;-63
2021/07/15 04:48:12;;;;;;;20.20;11.82;;;16.70;99.90;;;;;;5095908;28;20024;-62
2021/07/15 04:50:38;;;;;;;17.67;10.77;;;16.80;99.90;;;;;;5094327;28;20395;-63
2021/07/15 04:53:09;;;;;;;20.38;12.77;;;16.90;99.90;;;;;;5094953;28;20043;-63
2021/07/15 04:55:36;;;;;;;21.30;11.77;;;17.00;99.90;;;;;;5095172;28;20514;-63
2021/07/15 04:58:04;;;;;;;19.75;11.80;;;16.90;99.90;;;;;;5095170;28;20032;-63
2021/07/15 05:00:31;;;;;;;21.50;11.48;;;17.00;99.90;;;;;;5095150;28;20086;-63
2021/07/15 05:03:19;;;;;;;18.75;10.10;;;17.10;99.90;;;;;;5095965;28;20020;-63
2021/07/15 05:05:44;;;;;;;24.05;10.90;;;17.00;99.90;;;;;;5094454;28;20065;-63
2021/07/15 05:08:10;;;;;;;20.90;9.60;;;17.20;99.90;;;;;;5093066;28;20024;-64
2021/07/15 05:10:36;;;;;;;20.08;10.20;;;17.20;99.90;;;;;;5081524;28;20526;-64
2021/07/15 05:13:02;;;;;;;18.95;9.15;;;17.30;99.90;;;;;;5087953;28;20027;-63
2021/07/15 05:15:28;;;;;;;25.80;11.48;;;17.30;99.90;;;;;;5093222;28;20024;-63
2021/07/15 05:17:53;;;;;;;19.80;8.68;;;17.20;99.90;;;;;;5073921;28;20071;-63
2021/07/15 05:20:20;;;;;;;17.08;9.25;;;17.20;99.90;;;;;;5092332;28;20475;-62
2021/07/15 05:22:45;;;;;;;17.60;9.77;;;17.50;99.90;;;;;;5094278;28;20024;-62
2021/07/15 05:25:11;;;;;;;19.10;9.15;;;17.50;99.90;;;;;;5094034;28;20042;-62
2021/07/15 05:27:37;;;;;;;17.63;8.18;;;17.60;99.90;;;;;;5093061;28;20028;-63
2021/07/15 05:30:05;;;;;;;15.43;7.75;;;17.30;99.90;;;;;;5094609;28;20054;-62
2021/07/15 05:32:31;;;;;;;17.75;8.38;;;17.40;99.90;;;;;;5094103;28;20535;-63
2021/07/15 05:34:57;;;;;;;18.15;9.02;;;17.40;99.90;;;;;;5091956;28;20028;-61
2021/07/15 05:37:22;;;;;;;16.83;8.35;;;17.30;99.90;;;;;;5090035;28;20069;-61
2021/07/15 05:39:48;;;;;;;21.85;8.75;;;17.30;99.90;;;;;;5091853;28;20024;-61
2021/07/15 05:42:14;;;;;;;18.38;9.45;;;17.50;99.90;;;;;;5091564;28;20013;-61
2021/07/15 05:44:40;;;;;;;20.67;8.60;;;17.70;99.90;;;;;;5091580;28;20030;-62
2021/07/15 05:47:07;;;;;;;18.10;8.50;;;17.90;99.90;;;;;;5091547;28;20043;-63
2021/07/15 05:49:36;;;;;;;16.77;8.25;;;17.90;99.90;;;;;;5091524;28;20085;-62
2021/07/15 05:52:08;;;;;;;17.17;9.00;;;17.70;99.90;;;;;;5090294;28;20056;-60
2021/07/15 05:54:34;;;;;;;16.98;8.43;;;17.80;99.90;;;;;;5091018;28;20024;-61
2021/07/15 05:57:00;;;;;;;25.60;8.50;;;17.60;99.90;;;;;;5089691;28;20070;-62
2021/07/15 05:59:26;;;;;;;19.48;10.02;;;17.60;99.90;;;;;;5090681;28;20052;-61
2021/07/15 06:01:52;;;;;;;18.77;8.10;;;17.50;99.90;;;;;;5090418;28;20016;-61
2021/07/15 06:04:17;;;;;;;17.38;8.13;;;17.70;99.90;;;;;;5083166;28;20020;-61
2021/07/15 06:06:43;;;;;;;16.80;8.07;;;17.50;99.90;;;;;;5070794;28;20396;-61
2021/07/15 06:09:08;;;;;;;17.20;8.32;;;17.50;99.90;;;;;;5084765;28;20024;-60
2021/07/15 06:11:34;;;;;;;16.42;7.57;;;17.70;99.90;;;;;;5091129;28;20165;-62
2021/07/15 06:14:00;;;;;;;21.13;8.68;;;17.80;99.90;;;;;;5091105;28;20046;-59
2021/07/15 06:16:25;;;;;;;18.90;7.80;;;17.80;99.90;;;;;;5089598;28;20628;-59
2021/07/15 06:18:51;;;;;;;17.55;7.93;;;17.80;99.90;;;;;;5090191;28;20353;-60
2021/07/15 06:21:16;;;;;;;19.23;8.70;;;17.70;99.90;;;;;;5091096;28;20091;-61
2021/07/15 06:23:42;;;;;;;17.27;8.13;;;17.80;99.90;;;;;;5090874;28;20533;-60
2021/07/15 06:26:10;;;;;;;17.73;8.32;;;17.90;99.90;;;;;;5089549;28;20590;-60
2021/07/15 06:28:36;;;;;;;19.90;8.85;;;17.80;99.90;;;;;;5091065;28;20387;-60
2021/07/15 06:31:01;;;;;;;16.90;8.90;;;17.80;99.90;;;;;;5090809;28;20080;-61
2021/07/15 06:33:27;;;;;;;18.63;9.10;;;17.80;99.90;;;;;;5090827;28;20028;-61
2021/07/15 06:35:54;;;;;;;20.20;10.07;;;17.90;99.90;;;;;;5090439;28;20103;-61
2021/07/15 06:38:20;;;;;;;20.45;9.65;;;18.00;99.90;;;;;;5090019;28;20016;-61
2021/07/15 06:40:47;;;;;;;21.10;10.07;;;17.90;99.90;;;;;;5090932;28;20020;-61
2021/07/15 06:43:13;;;;;;;19.25;9.27;;;17.90;99.90;;;;;;5074838;28;20073;-61
2021/07/15 06:45:39;;;;;;;20.40;9.82;;;18.00;99.90;;;;;;5070359;28;20048;-59
2021/07/15 06:48:04;;;;;;;17.73;9.10;;;18.30;99.90;;;;;;5070581;28;20032;-60
2021/07/15 06:50:30;;;;;;;18.90;9.18;;;18.30;99.90;;;;;;5069750;28;20059;-62
2021/07/15 06:52:56;;;;;;;17.60;9.13;;;18.30;99.90;;;;;;5070008;28;20028;-62
2021/07/15 06:55:21;;;;;;;19.17;9.95;;;18.40;99.90;;;;;;5070035;28;20025;-61
2021/07/15 06:57:47;;;;;;;20.50;9.15;;;18.50;99.90;;;;;;5070221;28;20016;-62
2021/07/15 07:00:16;;;;;;;22.50;8.90;;;18.40;99.90;;;;;;5070443;28;20021;-61
2021/07/15 07:02:43;;;;;;;20.13;9.55;;;18.60;99.90;;;;;;5070852;28;20032;-62
2021/07/15 07:05:09;;;;;;;17.27;8.63;;;18.80;99.90;;;;;;5070226;28;20098;-60
2021/07/15 07:07:36;;;;;;;18.50;8.48;;;19.10;99.90;;;;;;5069873;28;20020;-62
2021/07/15 07:10:04;;;;;;;19.45;9.25;;;19.20;99.90;;;;;;5088022;28;20480;-61
2021/07/15 07:12:30;;;;;;;20.77;10.02;;;19.10;99.90;;;;;;5089180;28;20426;-61
2021/07/15 07:14:55;;;;;;;19.20;9.40;;;18.80;99.90;;;;;;5090390;28;20031;-60
2021/07/15 07:17:21;;;;;;;19.10;9.05;;;18.80;99.90;;;;;;5090036;28;20024;-61
2021/07/15 07:19:46;;;;;;;18.20;8.63;;;18.80;99.90;;;;;;5090326;28;20150;-60
2021/07/15 07:22:12;;;;;;;22.08;10.07;;;18.90;99.90;;;;;;5090321;28;20039;-62
2021/07/15 07:24:37;;;;;;;19.25;9.98;;;18.70;99.90;;;;;;5089585;28;20035;-61
2021/07/15 07:27:03;;;;;;;17.25;9.23;;;19.20;99.90;;;;;;5089018;28;20360;-60
2021/07/15 07:29:29;;;;;;;17.83;9.52;;;19.30;99.90;;;;;;5089438;28;20036;-60
2021/07/15 07:31:54;;;;;;;19.88;9.95;;;19.50;99.90;;;;;;5090345;28;20085;-61
2021/07/15 07:34:20;;;;;;;21.98;9.57;;;19.30;99.90;;;;;;5090395;28;20027;-61
2021/07/15 07:36:46;;;;;;;21.25;11.45;;;19.70;99.90;;;;;;5090534;28;20039;-61
2021/07/15 07:39:11;;;;;;;17.92;8.90;;;19.80;99.90;;;;;;5089351;28;20055;-61
2021/07/15 07:41:37;;;;;;;19.52;8.98;;;19.80;99.90;;;;;;5090373;28;20060;-61
2021/07/15 07:44:03;;;;;;;16.90;8.80;;;20.10;99.90;;;;;;5089092;28;20111;-61
2021/07/15 07:46:29;;;;;;;20.30;8.98;;;19.60;99.90;;;;;;5090143;28;20518;-61
2021/07/15 07:48:55;;;;;;;20.00;9.13;;;19.90;99.90;;;;;;5090385;28;20107;-61
2021/07/15 07:51:20;;;;;;;21.25;9.27;;;19.90;99.90;;;;;;5093847;28;20130;-61
2021/07/15 07:53:48;;;;;;;16.52;9.15;;;20.30;99.90;;;;;;5093777;28;20099;-62
2021/07/15 07:56:15;;;;;;;16.60;8.48;;;20.40;99.90;;;;;;5092560;28;20039;-62
2021/07/15 07:58:41;;;;;;;17.52;8.90;;;19.80;99.90;;;;;;5093815;28;20020;-61
2021/07/15 08:01:07;;;;;;;17.80;8.52;;;20.30;99.90;;;;;;5093613;28;20043;-61
2021/07/15 08:03:32;;;;;;;17.73;8.88;;;20.60;99.90;;;;;;5093727;28;20380;-60
2021/07/15 08:05:58;;;;;;;20.52;10.65;;;20.40;99.90;;;;;;5092395;28;20085;-61
2021/07/15 08:08:26;;;;;;;20.05;11.52;;;20.70;99.90;;;;;;5092325;28;20020;-62
2021/07/15 08:10:51;;;;;;;16.60;9.30;;;20.20;99.90;;;;;;5093570;28;20020;-62
2021/07/15 08:13:17;;;;;;;19.98;10.00;;;20.00;99.90;;;;;;5096998;22;20060;-59
2021/07/15 08:15:43;;;;;;;16.40;8.68;;;19.80;99.90;;;;;;5053322;28;20051;-59
2021/07/15 08:18:09;;;;;;;18.45;8.75;;;19.60;99.90;;;;;;5053200;28;20052;-61
2021/07/15 08:20:35;;;;;;;16.10;8.13;;;19.50;99.90;;;;;;5036547;28;20071;-57
2021/07/15 08:23:01;;;;;;;16.58;8.80;;;19.30;99.90;;;;;;5041251;28;20020;-59
2021/07/15 08:25:27;;;;;;;16.50;9.63;;;19.30;99.90;;;;;;5074425;28;20348;-58
2021/07/15 08:27:52;;;;;;;17.73;9.32;;;19.40;99.90;;;;;;5055796;28;20054;-60
2021/07/15 08:30:19;;;;;;;17.13;8.68;;;19.70;99.90;;;;;;5074108;28;20490;-58
2021/07/15 08:32:45;;;;;;;17.55;8.02;;;19.80;99.90;;;;;;5073967;28;20021;-61
2021/07/15 08:35:11;;;;;;;18.20;8.77;;;19.70;99.90;;;;;;5056397;28;20029;-61
2021/07/15 08:37:37;;;;;;;17.02;7.65;;;19.50;99.90;;;;;;5074090;28;20092;-60
2021/07/15 08:40:05;;;;;;;15.85;7.78;;;19.80;99.90;;;;;;5074319;28;20020;-57
2021/07/15 08:42:31;;;;;;;16.08;8.45;;;19.70;99.90;;;;;;5073973;28;20468;-62
2021/07/15 08:45:01;;;;;;;16.05;7.30;;;19.70;99.90;;;;;;5055963;28;20107;-60
2021/07/15 08:47:28;;;;;;;17.15;6.47;;;19.90;99.90;;;;;;5073640;28;20032;-62
2021/07/15 08:49:54;;;;;;;16.92;7.72;;;19.90;99.90;;;;;;5073458;28;20429;-60
2021/07/15 08:52:20;;;;;;;15.63;7.50;;;20.00;99.90;;;;;;5073907;28;20173;-62
2021/07/15 08:57:15;;;;;;;14.82;6.80;;;20.30;99.90;;;;;;5073513;28;20021;-63
2021/07/15 08:59:40;;;;;;;15.20;7.50;;;20.60;99.90;;;;;;5055561;28;20055;-63
2021/07/15 09:02:06;;;;;;;14.95;7.55;;;20.80;99.90;;;;;;5072961;28;20417;-63
2021/07/15 09:04:32;;;;;;;14.05;6.40;;;20.80;99.90;;;;;;5055998;28;20123;-63
2021/07/15 09:06:57;;;;;;;15.40;6.60;;;20.90;99.90;;;;;;5073309;28;20082;-63
2021/07/15 09:09:23;;;;;;;14.50;7.13;;;21.20;99.90;;;;;;5086022;28;20028;-63
2021/07/15 09:11:49;;;;;;;14.63;7.35;;;21.50;99.90;;;;;;5093418;28;20028;-63
2021/07/15 09:14:17;;;;;;;15.00;7.53;;;20.90;99.90;;;;;;5074886;28;20036;-64
2021/07/15 09:16:51;;;;;;;15.57;7.68;;;21.70;99.90;;;;;;5093289;28;20047;-63
2021/07/15 09:19:18;;;;;;;14.90;7.50;;;22.00;99.90;;;;;;5093658;28;20044;-63
2021/07/15 09:21:44;;;;;;;15.48;7.82;;;21.60;99.90;;;;;;5093605;28;20146;-64
2021/07/15 09:24:37;;;;;;;14.63;6.90;;;21.60;99.90;;;;;;5075273;28;20052;-63
2021/07/15 09:27:26;;;;;;;14.60;7.07;;;21.70;99.90;;;;;;5093215;28;20035;-64
2021/07/15 09:30:14;;;;;;;14.60;7.10;;;21.60;99.90;;;;;;5093341;28;20024;-63
2021/07/15 09:32:49;;;;;;;;;;;21.60;99.90;;;;;;5093631;28;20040;-63
2021/07/15 09:35:23;;;;;;;14.30;7.15;;;21.30;99.90;;;;;;5093136;28;19904;-63
2021/07/15 09:37:49;;;;;;;15.20;7.47;;;21.40;99.90;;;;;;5093145;28;20016;-64
2021/07/15 09:40:14;;;;;;;14.85;7.75;;;21.50;99.90;;;;;;5093065;28;20370;-64
2021/07/15 09:42:40;;;;;;;16.35;8.00;;;21.70;99.90;;;;;;5074895;28;20043;-64
2021/07/15 09:45:09;;;;;;;15.88;7.70;;;21.50;99.90;;;;;;5075059;28;20031;-63
2021/07/15 09:47:40;;;;;;;14.35;7.25;;;21.40;99.90;;;;;;5092632;28;20027;-64
2021/07/15 09:50:17;;;;;;;15.50;7.05;;;21.20;99.90;;;;;;5092801;28;20024;-63
2021/07/15 09:52:44;;;;;;;14.00;7.37;;;21.00;99.90;;;;;;5092493;28;20017;-64
2021/07/15 09:55:26;;;;;;;15.20;8.02;;;21.20;99.90;;;;;;5092581;28;20089;-63
2021/07/15 09:58:01;;;;;;;14.10;7.50;;;;;;;;;;5074542;28;20020;-64
2021/07/15 10:00:46;;;;;;;16.58;8.40;;;22.10;99.90;;;;;;5092488;28;20028;-62
2021/07/15 10:03:15;;;;;;;15.48;8.20;;;22.70;99.90;;;;;;5092597;28;20030;-63
2021/07/15 10:05:52;;;;;;;22.67;8.73;;;22.60;99.90;;;;;;5074424;28;20483;-64
2021/07/15 10:08:25;;;;;;;14.50;8.20;;;;;;;;;;5092538;28;20114;-64
2021/07/15 10:10:51;;;;;;;14.73;8.18;;;;;;;;;;5092211;28;20080;-63
2021/07/15 10:13:22;;;;;;;18.15;8.43;;;;;;;;;;5073198;28;20039;-63
2021/07/15 10:15:49;;;;;;;14.95;8.18;;;;;;;;;;5092382;28;20024;-64
2021/07/15 10:18:33;;;;;;;15.40;8.60;;;;;;;;;;5092655;28;20020;-64
2021/07/15 10:20:59;;;;;;;16.58;9.02;;;;;;;;;;5092509;28;20114;-64
2021/07/15 10:23:41;;;;;;;14.55;8.40;;;;;;;;;;5092227;28;20483;-63
2021/07/15 10:26:11;;;;;;;15.18;8.50;;;;;;;;;;5074036;28;20028;-63
2021/07/15 10:28:38;;;;;;;18.75;8.18;;;;;;;;;;5074474;28;20032;-63
2021/07/15 10:31:05;;;;;;;14.68;8.18;;;;;;;;;;5074137;28;20436;-63
2021/07/15 10:33:31;;;;;;;14.02;7.70;;;;;;;;;;5074081;28;20111;-59
2021/07/15 10:35:58;;;;;;;16.00;8.13;;;;;;;;;;5074646;28;20032;-59
2021/07/15 10:38:25;;;;;;;14.95;8.13;;;;;;;;;;5092674;28;20016;-58
2021/07/15 10:40:51;;;;;;;14.00;7.10;;;;;;;;;;5074318;28;20397;-54
2021/07/15 10:43:18;;;;;;;25.45;18.15;;;;;;;;;;5091761;28;20026;-58
2021/07/15 10:45:45;;;;;;;17.13;8.70;;;;;;;;;;5091775;28;20054;-57
2021/07/15 10:48:13;;;;;;;15.27;8.52;;;;;;;;;;5092080;28;20438;-59
2021/07/15 10:50:39;;;;;;;14.77;8.82;;;;;;;;;;5092455;28;20035;-58
2021/07/15 10:53:08;;;;;;;14.90;8.80;;;;;;;;;;5091764;28;20442;-59
2021/07/15 10:55:34;;;;;;;15.55;8.80;;;;;;;;;;5091674;28;20020;-56
2021/07/15 10:58:00;;;;;;;16.60;8.55;;;;;;;;;;5092056;28;20020;-56
2021/07/15 11:00:27;;;;;;;14.63;8.30;;;;;;;;;;5091706;28;20074;-57
2021/07/15 11:03:09;;;;;;;16.83;9.52;;;;;;;;;;5091461;28;20534;-56
2021/07/15 11:05:45;;;;;;;14.75;8.55;;;;;;;;;;5091488;28;20028;-55
2021/07/15 11:08:10;;;;;;;15.48;8.63;;;;;;;;;;5090003;28;20028;-56
2021/07/15 11:10:36;;;;;;;16.17;8.73;;;;;;;;;;5071615;28;20412;-57
2021/07/15 11:13:04;;;;;;;15.50;8.82;;;;;;;;;;5053556;28;20033;-57
2021/07/15 11:15:49;;;;;;;15.48;8.95;;;;;;;;;;5071565;28;20027;-57
2021/07/15 11:18:33;;;;;;;15.88;8.30;;;;;;;;;;5054818;28;20025;-55
2021/07/15 11:21:20;;;;;;;16.13;8.10;;;;;;;;;;5071302;28;20051;-57
2021/07/15 11:23:46;;;;;;;16.35;8.52;;;;;;;;;;5071631;28;20059;-58
2021/07/15 11:26:27;;;;;;;16.30;9.15;;;;;;;;;;5075266;28;20060;-57
2021/07/15 11:28:54;;;;;;;16.55;8.68;;;;;;;;;;5075326;28;20025;-56
2021/07/15 11:31:38;;;;;;;15.00;7.82;;;;;;;;;;5075525;28;20028;-54
2021/07/15 11:34:04;;;;;;;14.80;7.75;;;;;;;;;;5057237;28;20025;-59
2021/07/15 11:36:31;;;;;;;14.65;7.80;;;;;;;;;;5075105;28;20035;-56
2021/07/15 11:39:03;;;;;;;14.50;7.55;;;;;;;;;;5075588;28;20103;-59
2021/07/15 11:41:49;;;;;;;16.27;8.25;;;;;;;;;;5075101;28;20017;-57
2021/07/15 11:44:17;;;;;;;17.48;7.90;;;;;;;;;;5074770;28;20032;-56
2021/07/15 11:46:43;;;;;;;15.18;7.15;;;;;;;;;;5074916;28;20582;-59
2021/07/15 11:49:11;;;;;;;17.27;7.75;;;;;;;;;;5057052;28;20033;-59
2021/07/15 11:51:52;;;;;;;15.27;7.97;;;;;;;;;;5075089;28;20090;-59
2021/07/15 11:54:21;;;;;;;16.45;7.97;;;;;;;;;;5074699;28;20020;-58
2021/07/15 11:56:55;;;;;;;14.30;7.30;;;;;;;;;;5074736;28;20043;-58
2021/07/15 11:59:33;;;;;;;16.92;7.78;;;;;;;;;;5075072;28;20012;-56
2021/07/15 12:02:03;;;;;;;15.90;7.53;;;;;;;;;;5074743;28;20039;-58
2021/07/15 12:04:49;;;;;;;15.10;7.65;;;;;;;;;;5056925;28;20032;-55
2021/07/15 12:07:21;;;;;;;15.73;8.00;;;;;;;;;;5074843;28;20036;-54
2021/07/15 12:09:47;;;;;;;16.02;7.53;;;;;;;;;;5072140;28;20153;-55
2021/07/15 12:12:15;;;;;;;15.60;8.35;;;;;;;;;;5095245;28;20027;-54
2021/07/15 12:14:41;;;;;;;17.25;7.72;;;;;;;;;;5094831;28;20036;-60
2021/07/15 12:17:08;;;;;;;16.17;7.50;;;;;;;;;;5094645;28;20073;-59
2021/07/15 12:19:34;;;;;;;15.02;8.23;;;;;;;;;;5076851;28;20024;-57
2021/07/15 12:22:00;;;;;;;15.75;9.70;;;;;;;;;;5094557;28;20031;-56
2021/07/15 12:24:27;;;;;;;16.30;10.40;;;;;;;;;;5076130;28;20383;-56
2021/07/15 12:26:53;;;;;;;15.00;9.80;;;;;;;;;;5093686;28;20031;-57
2021/07/15 12:29:19;;;;;;;16.08;10.70;;;;;;;;;;5094036;28;20054;-57
2021/07/15 12:31:45;;;;;;;16.63;10.93;;;;;;;;;;5094089;28;20024;-57
2021/07/15 12:34:11;;;;;;;16.15;10.90;;;;;;;;;;5093838;28;20039;-59
2021/07/15 12:36:39;;;;;;;16.30;10.73;;;;;;;;;;5093154;28;20028;-56
2021/07/15 12:39:07;;;;;;;16.67;11.73;;;;;;;;;;5095191;28;20360;-56
2021/07/15 12:41:34;;;;;;;16.63;11.50;;;;;;;;;;5076688;28;20148;-56
2021/07/15 12:44:04;;;;;;;17.45;12.55;;;;;;;;;;5094109;28;20073;-60
2021/07/15 12:46:31;;;;;;;17.20;12.30;;;;;;;;;;5093933;28;20054;-58
2021/07/15 12:49:02;;;;;;;15.95;11.93;;;;;;;;;;5094070;28;20066;-58
2021/07/15 12:51:29;;;;;;;16.65;11.20;;;;;;;;;;5094122;28;20060;-58
2021/07/15 12:53:55;;;;;;;18.02;12.27;;;;;;;;;;5093783;28;20348;-57
2021/07/15 12:56:25;;;;;;;15.90;11.93;;;;;;;;;;5093347;28;20086;-57
2021/07/15 12:58:58;;;;;;;16.98;12.73;;;;;;;;;;5093806;28;20446;-58
2021/07/15 13:01:25;;;;;;;17.52;12.75;;;;;;;;;;5093894;28;20031;-60
2021/07/15 13:04:01;;;;;;;20.20;13.57;;;;;;;;;;5093823;28;20027;-58
2021/07/15 13:06:34;;;;;;;18.48;13.65;;;;;;;;;;5074884;28;20043;-57
2021/07/15 13:09:07;;;;;;;15.63;12.40;;;;;;;;;;5093497;28;20016;-57
2021/07/15 13:14:19;;;;;;;19.00;13.40;;;;;;;;;;5093848;28;20070;-58